Messwerte Decatur

Temperatur

Temperatur
°C
1624024800 9.00 9.00 27
1624028400 10.00 10.00 31
1624032000 11.00 11.00 32
1624035600 12.00 12.00 34
1624039200 13.00 13.00 34
1624042800 14.00 14.00 33
1624046400 15.00 15.00 35
1624050000 16.00 16.00 35
1624053600 17.00 17.00 31
1624057200 18.00 18.00 32
1624060800 19.00 19.00 31
1624064400 20.00 20.00 28
1624068000 21.00 21.00 28
1624071600 22.00 22.00 27
1624075200 23.00 23.00 26
1624078800 0.00 0.00 24
1624082400 1.00 1.00 24
1624086000 2.00 2.00 24
1624089600 3.00 3.00
1624093200 4.00 4.00 21
1624096800 5.00 5.00 21
1624100400 6.00 6.00 20
1624104000 7.00 7.00 21
1624107600 8.00 8.00 21

Aktuellste Messwerte

Wettercharakter
Wetter: gewitterhaft
Temperatur
21 °C
Feuchtigkeit
90 %
Wind
15 km/hWindrichtung: Südwest
Böen
25 km/h
Luftdruck
1014 hPa
Messzeit: 19. Juni 2021, 9.00Datenquelle: METAR

Weitere Messstationen in der Nähe

Messstation Temperatur Entfernung
Taylorville 18 °C 52 km
Lincoln 21 °C 54 km
Champaign 20 °C 55 km
Mattoon / Charleston 19 °C 64 km
Springfield 20 °C 68 km
Bloomington 20 °C 71 km
Rantoul 20 °C 80 km

Wind

Windrichtung Böen Mittelwind
° km/h km/h
1624024800 9.00 8.00 - 9.00 220° 20
1624028400 10.00 9.00 - 10.00 230° 45 30
1624032000 11.00 10.00 - 11.00 250° 45 30
1624035600 12.00 11.00 - 12.00 260° 45 20
1624039200 13.00 12.00 - 13.00 300° 45 30
1624042800 14.00 13.00 - 14.00 190° 20
1624046400 15.00 14.00 - 15.00 220° 20
1624050000 16.00 15.00 - 16.00 260° 30 20
1624053600 17.00 16.00 - 17.00 320° 20
1624057200 18.00 17.00 - 18.00 330° 20
1624060800 19.00 18.00 - 19.00 0
1624064400 20.00 19.00 - 20.00 350° 20
1624068000 21.00 20.00 - 21.00 270° 5
1624071600 22.00 21.00 - 22.00
1624075200 23.00 22.00 - 23.00 330° 15
1624078800 0.00 23.00 - 0.00 140° 10
1624082400 1.00 0.00 - 1.00 0
1624086000 2.00 1.00 - 2.00 210° 5
1624089600 3.00 2.00 - 3.00
1624093200 4.00 3.00 - 4.00 360° 70 30
1624096800 5.00 4.00 - 5.00 340° 45 20
1624100400 6.00 5.00 - 6.00 120° 20
1624104000 7.00 6.00 - 7.00 160° 30 20
1624107600 8.00 7.00 - 8.00 220° 40 30

Ihre Wetterstation

Fehlt Ihre Wetterstation auf unserem Portal?

Schreiben Sie an network@meteonews.ch

Klima

Wann ist es am wärmsten? Wann regnet es am wenigsten? Unsere Klimadaten geben Auskunft.